Lehighton Hobbies

PO Box 696

Lehighton Pa 18235

MAIL ORDER ONLY

        

To order from our site call our phone line (Credit Card)

Or email us, we can send an invoice thru PayPal

Or visit our shopping cart area, we are expanding it daily

3d cart stores

Phone Orders 484-629-4252

E Mail Orders marmn927@ptd.net   

 

Tell a friend:

 

Kinetic Models Current Inventory August 25, 2019

To order from this web site:

call us 484-629-4252 for credit card sales

or email us marmn927@ptd.net for PayPal invoicing

  PartNo. Description List Price Our Price
KIN 0 Kinetic Model Catalog   $3.00
KIN 3207 P-47D THUNDERBOLT BUBBLETOP:24 $175.00 $140.00
KIN 3208 P-47D THUNDERBOLT RAZORBACK:24 $228.00 $182.40
KIN 48002 F-16AM BLOCK 15 NATO 1:48 $69.00 $55.20
KIN 48005 F-16DG/DJ BLOCK 40/50 USAF :48 $65.00 $52.00
KIN 48006 F-16I SUFA IAF Two Seater 1:48 $60.00 $48.00
KIN 48008 F-16F TWO SEATER DESERT FALCON $88.00 $70.40
KIN 48009 F-16D BRAKEET IAF 1:48 $88.00 $70.40
KIN 48012 F-16C ISRAELI AF BARAK 1:48 $57.00 $45.60
KIN 48013 E2C HAWKEYE USN/FAF 1:48 $100.00 $80.00
KIN 48014 E-2C HAWKEYE JASDF 50th 1:48 $82.00 $65.60
KIN 48015 E-2C HAWKEYE FRENCH NAVY 1:48 $82.00 $65.60
KIN 48016 E-2C HAWKEYE USN EARLY WARN:48 $82.00 $65.60
KIN 48021 F-5B Freedom Fighter 1:48 $63.00 $50.40
KIN 48024 S-2F TRACKER 1:48 $91.00 $72.80
KIN 48025 C-2A GREYHOUND USN 1:48 $106.00 $84.80
KIN 48026 AMX Ground Attack Aircraft :48 $60.00 $48.00
KIN 48027 AMX-T/1B Two-seater Fighter:48 $60.00 $48.00
KIN 48028 F-16E BLOCK 52 GREEK AF 1:48 $54.00 $43.20
KIN 48029 F-16E BLOCK 60 Sgl SEAT 1:48 $73.00 $58.40
KIN 48030 F/A-18A+/B/CF-188 1:48 $77.00 $61.60
KIN 48032 MIRAGE 2000D/N 1:48 $54.00 $43.20
KIN 48033 F/A-18D ATARS 1:48 $76.00 $60.80
KIN 48036 F-16AM BLOCK 20 TIGER MEET :48 $54.00 $43.20
KIN 48037 MIRAGE 2000-5Di ROCAF 1:48 $54.00 $43.20
KIN 48038 T45A/C GOSHAWK 1:48 $63.00 $50.40
KIN 48040 HarrierT2/T2A/T2N/T4/T4N/T8:48 $60.00 $48.00
KIN 48042 MIRAGE 2000C 1:48 $54.00 $43.20
KIN 48043 Alpha Jet A/E 1:48 $48.00 $38.40
KIN 48045 MIRAGE 2000-5EI ROCAF 1:48 $54.00 $43.20
KIN 48050 Mirage IIIE/O/R/RD/EE/EA 1:48 $70.00 $56.00
KIN 48051 Fuga CM 170 Magister 2pk 1:48 $58.00 $46.40
KIN 48052 Mirage IIIEBR/IIIEA IAI M5 :48 $70.00 $56.00
KIN 48054 Mirage IIIBE/D/DE/DS/D2Z 1:48 $54.00 $43.20
KIN 48055 ROCAF F-16A/B AnnivFlyTigrs:48 $73.00 $58.40
KIN 48058 Swiss Mirage IIIS/RS 1:48 $54.00 $43.20
KIN 48059 Fouga CM170R MagisterAus AF:48 $38.00 $30.40
KIN 48061 Super Etendard/Sup Eten Mod:48 $54.00 $43.20
KIN 48063 M-346 Master Adv Fghtr Trnr:48 $60.00 $48.00
KIN 48064 Alpha Jet Patrouille 2pk 1:48 $48.00 $38.40
KIN 48065 J-15 Flying Shark 1:48 $81.00 $64.80
KIN 48069 Turkish Air Force F-16C 1:48 $70.00 $56.00
KIN 48070 CF-188A RCAF DEMO 2017 1:48 $66.00 $52.80
KIN 48076 F-16C/D Block 52+ 1:48 $77.00 $61.60
KIN 48079 CF-188A RCAF 20Yrs Serv 1:48 $75.00 $60.00
KIN 48086 F-16XL2 1:48 $76.00 $60.80
KIN 61010 RG-31 MK3 CANADIAN ARMY 1:35 $60.00 $48.00
KIN 61014 M3A3 Bradley CFV 1:35 $45.00 $36.00
KIN 61015 RG-31 Mk5 US Army MineProt Car $80.00 $64.00
KIN 72001 F-161 SUFA IAF Two Seater 1:72 $43.00 $34.40


 

HOME